createdAt,value
2018-06-02T00:01:01.782Z,79.10
2018-06-02T00:03:29.329Z,79.70
2018-06-02T00:05:56.842Z,79.40
2018-06-02T00:08:24.369Z,79.40
2018-06-02T00:10:51.893Z,79.30
2018-06-02T00:13:19.419Z,79.20
2018-06-02T00:15:46.937Z,79.50
2018-06-02T00:18:14.446Z,79.20
2018-06-02T00:20:41.960Z,78.80
2018-06-02T00:23:09.475Z,78.80
2018-06-02T00:25:36.999Z,79.00
2018-06-02T00:28:04.521Z,79.00
2018-06-02T00:30:32.051Z,79.70
2018-06-02T00:32:59.571Z,79.10
2018-06-02T00:35:27.099Z,78.80
2018-06-02T00:37:54.614Z,78.90
2018-06-02T00:40:22.128Z,78.50
2018-06-02T00:42:49.683Z,78.40
2018-06-02T00:45:17.200Z,78.30
2018-06-02T00:47:44.715Z,78.40
2018-06-02T00:50:12.227Z,78.30
2018-06-02T00:52:39.749Z,78.10
2018-06-02T00:55:08.195Z,78.50
2018-06-02T00:57:35.716Z,78.40
2018-06-02T01:00:03.223Z,78.40
2018-06-02T01:02:30.790Z,78.80
2018-06-02T01:04:58.335Z,78.70
2018-06-02T01:07:25.850Z,78.40
2018-06-02T01:09:53.387Z,78.70
2018-06-02T01:12:20.911Z,78.60
2018-06-02T01:14:48.452Z,78.90
2018-06-02T01:17:15.959Z,79.30
2018-06-02T01:19:43.855Z,79.30
2018-06-02T01:22:11.371Z,79.50
2018-06-02T01:24:38.892Z,79.20
2018-06-02T01:27:06.410Z,79.30
2018-06-02T01:29:33.928Z,79.20
2018-06-02T01:32:01.453Z,79.20
2018-06-02T01:34:28.967Z,79.20
2018-06-02T01:36:56.483Z,79.30
2018-06-02T01:39:24.004Z,79.20
2018-06-02T01:41:51.535Z,79.60
2018-06-02T01:44:19.047Z,79.90
2018-06-02T01:46:46.575Z,79.50
2018-06-02T01:49:14.104Z,79.20
2018-06-02T01:51:41.648Z,79.20
2018-06-02T01:54:09.184Z,79.60
2018-06-02T01:56:36.713Z,79.20
2018-06-02T01:59:04.888Z,78.80
2018-06-02T02:01:32.423Z,79.20
2018-06-02T02:03:59.943Z,79.50
2018-06-02T02:06:27.478Z,79.40
2018-06-02T02:08:55.001Z,79.00
2018-06-02T02:11:22.534Z,78.70
2018-06-02T02:13:50.047Z,79.30
2018-06-02T02:16:17.583Z,78.80
2018-06-02T02:18:45.105Z,78.90
2018-06-02T02:21:12.638Z,79.30
2018-06-02T02:23:40.163Z,79.50
2018-06-02T02:26:07.701Z,79.30
2018-06-02T02:28:35.221Z,79.00
2018-06-02T02:31:06.823Z,79.40
2018-06-02T02:33:38.620Z,79.30
2018-06-02T02:36:06.159Z,79.30
2018-06-02T02:38:33.680Z,79.40
2018-06-02T02:41:01.225Z,79.30
2018-06-02T02:43:28.747Z,79.30
2018-06-02T02:45:56.285Z,79.20
2018-06-02T02:48:24.559Z,80.00
2018-06-02T02:50:52.838Z,79.60
2018-06-02T02:53:21.123Z,79.70
2018-06-02T02:55:48.643Z,79.80
2018-06-02T02:58:16.168Z,79.20
2018-06-02T03:00:43.699Z,79.30
2018-06-02T03:03:11.231Z,79.40
2018-06-02T03:05:38.748Z,79.20
2018-06-02T03:08:06.287Z,79.50
2018-06-02T03:10:33.806Z,79.60
2018-06-02T03:13:01.335Z,79.70
2018-06-02T03:15:28.848Z,79.30
2018-06-02T03:17:56.378Z,79.30
2018-06-02T03:20:23.899Z,79.80
2018-06-02T03:22:51.426Z,79.80
2018-06-02T03:25:18.943Z,79.20
2018-06-02T03:27:46.467Z,79.20
2018-06-02T03:30:13.987Z,79.40
2018-06-02T03:32:41.503Z,80.10
2018-06-02T03:35:09.027Z,79.40
2018-06-02T03:37:38.431Z,79.30
2018-06-02T03:40:05.947Z,79.30
2018-06-02T03:42:33.476Z,79.10
2018-06-02T03:45:00.989Z,79.20
2018-06-02T03:47:28.524Z,79.20
2018-06-02T03:49:56.048Z,79.10
2018-06-02T03:52:23.569Z,79.20
2018-06-02T03:54:51.095Z,79.50
2018-06-02T03:57:18.624Z,79.40
2018-06-02T03:59:46.151Z,79.30
2018-06-02T04:02:13.671Z,79.20
2018-06-02T04:04:41.206Z,79.30
2018-06-02T04:07:08.743Z,79.20
2018-06-02T04:09:37.176Z,79.30
2018-06-02T04:12:05.928Z,79.40
2018-06-02T04:14:33.451Z,79.20
2018-06-02T04:17:00.999Z,79.40
2018-06-02T04:19:28.523Z,79.40
2018-06-02T04:21:56.051Z,79.30
2018-06-02T04:24:23.578Z,79.30
2018-06-02T04:26:51.091Z,79.20
2018-06-02T04:29:18.611Z,79.20
2018-06-02T04:31:46.134Z,79.50
2018-06-02T04:34:13.658Z,79.50
2018-06-02T04:36:41.190Z,79.70
2018-06-02T04:39:08.711Z,79.60
2018-06-02T04:41:36.295Z,79.50
2018-06-02T04:44:03.776Z,79.60
2018-06-02T04:46:31.299Z,79.70
2018-06-02T04:48:58.815Z,79.60
2018-06-02T04:51:26.349Z,79.70
2018-06-02T04:53:53.870Z,79.60
2018-06-02T04:56:21.391Z,79.70
2018-06-02T04:58:49.684Z,79.90
2018-06-02T05:01:17.259Z,79.90
2018-06-02T05:03:44.777Z,79.80
2018-06-02T05:06:12.299Z,79.60
2018-06-02T05:08:39.818Z,79.70
2018-06-02T05:11:07.343Z,79.70
2018-06-02T05:13:34.870Z,79.80
2018-06-02T05:16:02.392Z,79.90
2018-06-02T05:18:29.910Z,80.00
2018-06-02T05:20:57.431Z,80.00
2018-06-02T05:23:25.068Z,79.90
2018-06-02T05:25:52.594Z,80.10
2018-06-02T05:28:20.131Z,79.90
2018-06-02T05:30:47.654Z,80.00
2018-06-02T05:33:15.190Z,80.10
2018-06-02T05:35:42.734Z,80.30
2018-06-02T05:38:10.278Z,80.30
2018-06-02T05:40:37.795Z,80.50
2018-06-02T05:43:05.343Z,80.30
2018-06-02T05:45:33.137Z,80.40
2018-06-02T05:48:00.691Z,80.40
2018-06-02T05:50:28.211Z,80.50
2018-06-02T05:52:55.751Z,80.30
2018-06-02T05:55:23.271Z,80.40
2018-06-02T05:57:50.795Z,80.50
2018-06-02T06:00:18.319Z,80.50
2018-06-02T06:02:45.851Z,80.40
2018-06-02T06:05:14.176Z,80.20
2018-06-02T06:07:41.693Z,80.30
2018-06-02T06:10:09.207Z,80.30
2018-06-02T06:12:36.743Z,80.30
2018-06-02T06:15:04.264Z,80.10
2018-06-02T06:17:31.786Z,80.30
2018-06-02T06:19:59.351Z,81.10
2018-06-02T06:22:26.866Z,80.40
2018-06-02T06:24:54.383Z,80.30
2018-06-02T06:27:21.939Z,80.30
2018-06-02T06:29:49.468Z,80.40
2018-06-02T06:32:17.026Z,80.40
2018-06-02T06:34:44.539Z,80.60
2018-06-02T06:37:12.063Z,80.60
2018-06-02T06:39:39.578Z,80.70
2018-06-02T06:42:07.102Z,80.70
2018-06-02T06:44:35.322Z,80.90
2018-06-02T06:47:04.223Z,81.00
2018-06-02T06:49:34.624Z,81.00
2018-06-02T06:52:07.126Z,81.10
2018-06-02T06:54:38.316Z,81.00
2018-06-02T06:57:06.720Z,81.10
2018-06-02T06:59:34.262Z,81.00
2018-06-02T07:02:01.788Z,80.80
2018-06-02T07:04:29.298Z,80.80
2018-06-02T07:06:57.577Z,80.60
2018-06-02T07:09:25.863Z,80.50
2018-06-02T07:11:53.511Z,80.50
2018-06-02T07:14:20.965Z,80.20
2018-06-02T07:16:48.480Z,80.30
2018-06-02T07:19:16.019Z,79.90
2018-06-02T07:21:43.572Z,80.30
2018-06-02T07:24:11.092Z,80.30
2018-06-02T07:26:38.622Z,80.50
2018-06-02T07:29:06.131Z,80.90
2018-06-02T07:31:34.416Z,80.60
2018-06-02T07:34:03.540Z,80.70
2018-06-02T07:36:31.048Z,80.70
2018-06-02T07:38:58.565Z,80.40
2018-06-02T07:41:26.083Z,80.20
2018-06-02T07:43:53.667Z,80.70
2018-06-02T07:46:21.196Z,81.30
2018-06-02T07:48:49.486Z,81.10
2018-06-02T07:51:17.412Z,81.10
2018-06-02T07:53:44.927Z,81.20
2018-06-02T07:56:12.450Z,81.10
2018-06-02T07:58:39.984Z,81.20
2018-06-02T08:01:07.554Z,81.10
2018-06-02T08:03:35.075Z,81.50
2018-06-02T08:06:02.969Z,81.00
2018-06-02T08:08:30.531Z,81.20
2018-06-02T08:10:58.038Z,80.90
2018-06-02T08:13:25.556Z,80.80
2018-06-02T08:15:53.093Z,81.10
2018-06-02T08:18:20.618Z,80.90
2018-06-02T08:20:48.903Z,80.80
2018-06-02T08:23:16.435Z,80.70
2018-06-02T08:25:43.962Z,81.00
2018-06-02T08:28:11.503Z,81.30
2018-06-02T08:30:39.018Z,81.30
2018-06-02T08:33:07.305Z,80.70
2018-06-02T08:35:34.814Z,81.40
2018-06-02T08:38:02.384Z,81.00
2018-06-02T08:40:29.911Z,81.10
2018-06-02T08:42:57.432Z,80.70
2018-06-02T08:45:24.959Z,80.70
2018-06-02T08:47:52.474Z,80.50
2018-06-02T08:50:19.998Z,80.20
2018-06-02T08:52:47.547Z,79.70
2018-06-02T08:55:15.071Z,79.60
2018-06-02T08:57:42.595Z,79.80
2018-06-02T09:00:10.884Z,79.60
2018-06-02T09:02:38.399Z,79.50
2018-06-02T09:05:05.914Z,79.20
2018-06-02T09:07:34.199Z,78.50
2018-06-02T09:10:01.719Z,78.40
2018-06-02T09:12:30.073Z,78.20
2018-06-02T09:14:57.591Z,78.40
2018-06-02T09:17:25.101Z,78.10
2018-06-02T09:19:52.620Z,77.50
2018-06-02T09:22:20.145Z,77.30
2018-06-02T09:24:47.659Z,77.30
2018-06-02T09:27:15.177Z,76.70
2018-06-02T09:29:42.701Z,76.80
2018-06-02T09:32:10.222Z,76.50
2018-06-02T09:34:37.748Z,76.10
2018-06-02T09:37:05.279Z,75.70
2018-06-02T09:39:32.796Z,75.40
2018-06-02T09:42:00.319Z,75.00
2018-06-02T09:44:27.846Z,74.80
2018-06-02T09:46:55.362Z,73.80
2018-06-02T09:49:22.887Z,73.70
2018-06-02T09:51:50.406Z,73.20
2018-06-02T09:54:17.924Z,72.80
2018-06-02T09:56:45.455Z,73.00
2018-06-02T09:59:12.983Z,72.40
2018-06-02T10:01:40.510Z,71.50
2018-06-02T10:04:08.026Z,71.90
2018-06-02T10:06:35.549Z,71.80
2018-06-02T10:09:03.076Z,71.30
2018-06-02T10:11:30.597Z,71.60
2018-06-02T10:13:58.120Z,71.10
2018-06-02T10:16:25.650Z,71.50
2018-06-02T10:18:53.174Z,71.60
2018-06-02T10:21:20.691Z,70.90
2018-06-02T10:23:48.215Z,70.40
2018-06-02T10:26:15.738Z,70.80
2018-06-02T10:28:43.266Z,70.80
2018-06-02T10:31:10.782Z,70.30
2018-06-02T10:33:38.295Z,69.80
2018-06-02T10:36:05.820Z,68.80
2018-06-02T10:38:33.335Z,68.50
2018-06-02T10:41:00.854Z,67.90
2018-06-02T10:43:28.380Z,68.30
2018-06-02T10:45:55.922Z,67.40
2018-06-02T10:48:23.439Z,67.70
2018-06-02T10:50:50.984Z,67.10
2018-06-02T10:53:18.500Z,67.10
2018-06-02T10:55:46.040Z,66.10
2018-06-02T10:58:13.559Z,65.50
2018-06-02T11:00:41.070Z,65.00
2018-06-02T11:03:09.355Z,65.30
2018-06-02T11:05:36.879Z,65.30
2018-06-02T11:08:04.398Z,64.60
2018-06-02T11:10:31.911Z,65.20
2018-06-02T11:12:59.427Z,65.30
2018-06-02T11:15:29.288Z,65.50
2018-06-02T11:17:56.802Z,64.80
2018-06-02T11:20:24.358Z,64.90
2018-06-02T11:22:51.879Z,65.20
2018-06-02T11:25:19.397Z,65.20
2018-06-02T11:27:46.928Z,65.10
2018-06-02T11:30:14.455Z,65.10
2018-06-02T11:32:41.975Z,65.40
2018-06-02T11:35:09.495Z,64.70
2018-06-02T11:37:37.307Z,64.60
2018-06-02T11:40:04.835Z,64.70
2018-06-02T11:42:32.356Z,65.20
2018-06-02T11:44:59.894Z,65.10
2018-06-02T11:47:27.413Z,65.10
2018-06-02T11:49:54.931Z,64.20
2018-06-02T11:52:23.231Z,63.80
2018-06-02T11:54:50.763Z,63.80
2018-06-02T11:57:19.225Z,63.60
2018-06-02T11:59:46.812Z,63.20
2018-06-02T12:02:14.970Z,63.20
2018-06-02T12:04:42.496Z,63.40
2018-06-02T12:07:10.202Z,63.60
2018-06-02T12:13:07.658Z,63.20
2018-06-02T12:15:35.191Z,62.30
2018-06-02T12:18:02.712Z,62.40
2018-06-02T12:20:30.236Z,62.20
2018-06-02T12:22:57.763Z,62.30
2018-06-02T12:25:25.287Z,62.50
2018-06-02T12:27:52.808Z,61.50
2018-06-02T12:30:20.341Z,62.30
2018-06-02T12:32:47.864Z,61.90
2018-06-02T12:35:15.387Z,62.50
2018-06-02T12:37:42.903Z,61.80
2018-06-02T12:40:10.467Z,62.30
2018-06-02T12:42:37.979Z,62.70
2018-06-02T12:45:05.490Z,62.20
2018-06-02T12:47:33.782Z,61.90
2018-06-02T12:50:01.295Z,61.90
2018-06-02T12:52:28.806Z,62.30
2018-06-02T12:54:56.323Z,62.60
2018-06-02T12:57:23.862Z,62.20
2018-06-02T12:59:51.383Z,61.40
2018-06-02T13:02:18.908Z,61.40
2018-06-02T13:04:46.433Z,61.10
2018-06-02T13:07:13.942Z,61.40
2018-06-02T13:09:41.455Z,62.30
2018-06-02T13:12:09.139Z,62.30
2018-06-02T13:14:36.727Z,61.90
2018-06-02T13:17:04.199Z,61.40
2018-06-02T13:19:31.726Z,61.60
2018-06-02T13:21:59.247Z,61.70
2018-06-02T13:24:26.820Z,61.80
2018-06-02T13:26:54.344Z,61.50
2018-06-02T13:29:21.872Z,61.80
2018-06-02T13:31:49.396Z,61.60
2018-06-02T13:34:16.907Z,62.10
2018-06-02T13:36:44.431Z,62.40
2018-06-02T13:39:11.952Z,62.30
2018-06-02T13:41:39.475Z,61.70
2018-06-02T13:44:07.195Z,61.30
2018-06-02T13:46:34.706Z,61.40
2018-06-02T13:49:02.218Z,61.90
2018-06-02T13:51:29.740Z,61.10
2018-06-02T13:53:57.266Z,62.30
2018-06-02T13:56:24.779Z,61.60
2018-06-02T13:58:52.291Z,62.10
2018-06-02T14:01:19.811Z,62.30
2018-06-02T14:03:47.335Z,62.60
2018-06-02T14:06:14.859Z,62.90
2018-06-02T14:08:42.379Z,62.70
2018-06-02T14:11:09.905Z,63.00
2018-06-02T14:13:37.416Z,63.00
2018-06-02T14:16:04.930Z,62.60
2018-06-02T14:18:32.480Z,62.70
2018-06-02T14:20:59.991Z,62.60
2018-06-02T14:23:27.524Z,62.10
2018-06-02T14:25:55.043Z,62.70
2018-06-02T14:28:22.580Z,62.90
2018-06-02T14:30:50.102Z,63.40
2018-06-02T14:33:17.627Z,63.40
2018-06-02T14:35:45.460Z,62.90
2018-06-02T14:38:13.035Z,63.20
2018-06-02T14:40:40.519Z,61.50
2018-06-02T14:43:08.040Z,61.20
2018-06-02T14:45:35.546Z,60.50
2018-06-02T14:48:03.848Z,60.50
2018-06-02T14:50:31.367Z,60.40
2018-06-02T14:52:58.888Z,60.50
2018-06-02T14:55:26.405Z,61.20
2018-06-02T14:57:55.215Z,60.20
2018-06-02T15:00:22.739Z,60.00
2018-06-02T15:02:50.268Z,59.70
2018-06-02T15:05:17.793Z,60.10
2018-06-02T15:07:45.316Z,60.30
2018-06-02T15:10:13.599Z,60.00
2018-06-02T15:12:41.110Z,60.00
2018-06-02T15:15:08.634Z,60.00
2018-06-02T15:17:36.915Z,60.30
2018-06-02T15:20:04.436Z,60.30
2018-06-02T15:22:31.953Z,60.40
2018-06-02T15:24:59.519Z,60.30
2018-06-02T15:27:27.777Z,62.30
2018-06-02T15:29:55.720Z,62.10
2018-06-02T15:32:23.234Z,62.00
2018-06-02T15:34:50.751Z,61.50
2018-06-02T15:37:18.259Z,61.70
2018-06-02T15:39:45.785Z,60.90
2018-06-02T15:42:14.130Z,61.00
2018-06-02T15:44:41.616Z,60.90
2018-06-02T15:47:09.155Z,61.10
2018-06-02T15:49:36.677Z,61.80
2018-06-02T15:52:04.196Z,61.50
2018-06-02T15:54:31.713Z,60.80
2018-06-02T15:56:59.231Z,61.90
2018-06-02T15:59:26.761Z,62.10
2018-06-02T16:01:54.282Z,61.10
2018-06-02T16:04:21.796Z,61.10
2018-06-02T16:06:49.311Z,61.60
2018-06-02T16:09:16.822Z,60.90
2018-06-02T16:11:44.722Z,61.00
2018-06-02T16:14:12.687Z,61.30
2018-06-02T16:16:40.211Z,61.30
2018-06-02T16:19:08.491Z,62.90
2018-06-02T16:21:36.010Z,62.00
2018-06-02T16:24:03.526Z,61.10
2018-06-02T16:26:31.054Z,62.00
2018-06-02T16:28:58.608Z,62.50
2018-06-02T16:31:26.128Z,62.60
2018-06-02T16:33:53.658Z,62.80
2018-06-02T16:36:21.189Z,62.40
2018-06-02T16:38:48.746Z,62.00
2018-06-02T16:41:16.311Z,62.20
2018-06-02T16:43:43.827Z,62.80
2018-06-02T16:46:11.348Z,62.40
2018-06-02T16:48:38.871Z,61.70
2018-06-02T16:51:06.392Z,61.00
2018-06-02T16:53:33.912Z,61.50
2018-06-02T16:56:01.439Z,62.00
2018-06-02T16:58:28.972Z,61.60
2018-06-02T17:00:56.524Z,62.00
2018-06-02T17:03:24.048Z,62.10
2018-06-02T17:05:51.556Z,62.60
2018-06-02T17:08:19.080Z,62.80
2018-06-02T17:10:46.605Z,63.00
2018-06-02T17:13:14.124Z,63.70
2018-06-02T17:15:41.645Z,63.60
2018-06-02T17:18:09.187Z,64.00
2018-06-02T17:20:36.712Z,63.70
2018-06-02T17:23:04.230Z,63.90
2018-06-02T17:25:31.759Z,63.70
2018-06-02T17:27:59.279Z,63.50
2018-06-02T17:30:26.807Z,63.90
2018-06-02T17:32:54.332Z,63.70
2018-06-02T17:35:21.848Z,63.90
2018-06-02T17:37:49.384Z,64.10
2018-06-02T17:40:17.015Z,63.80
2018-06-02T17:42:44.590Z,63.90
2018-06-02T17:45:12.275Z,64.20
2018-06-02T17:47:39.978Z,64.20
2018-06-02T17:50:07.550Z,64.10
2018-06-02T17:52:35.075Z,64.10
2018-06-02T17:55:02.597Z,63.90
2018-06-02T17:57:30.123Z,64.20
2018-06-02T17:59:57.646Z,64.10
2018-06-02T18:02:25.166Z,64.80
2018-06-02T18:04:52.674Z,65.10
2018-06-02T18:07:20.203Z,65.00
2018-06-02T18:09:47.801Z,65.00
2018-06-02T18:12:15.587Z,65.10
2018-06-02T18:14:43.224Z,65.40
2018-06-02T18:17:11.115Z,65.30
2018-06-02T18:19:38.637Z,65.40
2018-06-02T18:22:06.155Z,65.50
2018-06-02T18:24:33.670Z,65.60
2018-06-02T18:27:01.953Z,65.70
2018-06-02T18:29:29.470Z,65.60
2018-06-02T18:31:56.988Z,66.30
2018-06-02T18:34:24.520Z,66.20
2018-06-02T18:36:52.042Z,66.70
2018-06-02T18:39:19.682Z,67.20
2018-06-02T18:41:47.235Z,67.00
2018-06-02T18:44:14.755Z,66.70
2018-06-02T18:46:42.278Z,66.50
2018-06-02T18:49:09.802Z,66.90
2018-06-02T18:51:38.107Z,67.40
2018-06-02T18:54:05.634Z,67.30
2018-06-02T18:56:33.234Z,67.50
2018-06-02T18:59:00.753Z,67.50
2018-06-02T19:01:28.304Z,67.70
2018-06-02T19:03:55.828Z,67.80
2018-06-02T19:06:23.367Z,68.10
2018-06-02T19:08:50.891Z,67.80
2018-06-02T19:11:18.436Z,68.30
2018-06-02T19:13:45.949Z,68.70
2018-06-02T19:16:13.492Z,69.80
2018-06-02T19:18:41.010Z,70.20
2018-06-02T19:21:08.543Z,69.60
2018-06-02T19:23:36.103Z,69.10
2018-06-02T19:26:03.674Z,69.70
2018-06-02T19:28:31.199Z,69.50
2018-06-02T19:30:58.743Z,70.60
2018-06-02T19:33:26.268Z,71.50
2018-06-02T19:35:53.825Z,71.00
2018-06-02T19:38:21.339Z,71.00
2018-06-02T19:40:48.878Z,70.70
2018-06-02T19:43:16.406Z,71.10
2018-06-02T19:45:43.928Z,71.50
2018-06-02T19:48:11.457Z,71.90
2018-06-02T19:50:39.001Z,71.50
2018-06-02T19:53:06.526Z,71.50
2018-06-02T19:55:34.047Z,71.40
2018-06-02T19:58:01.571Z,71.60
2018-06-02T20:00:29.385Z,71.60
2018-06-02T20:02:56.903Z,72.20
2018-06-02T20:05:24.423Z,72.50
2018-06-02T20:07:51.990Z,72.80
2018-06-02T20:10:19.514Z,72.80
2018-06-02T20:12:47.803Z,73.10
2018-06-02T20:15:15.327Z,73.10
2018-06-02T20:17:42.846Z,73.10
2018-06-02T20:20:10.368Z,73.40
2018-06-02T20:22:38.656Z,73.80
2018-06-02T20:25:06.191Z,73.80
2018-06-02T20:27:33.711Z,73.60
2018-06-02T20:30:01.227Z,73.60
2018-06-02T20:32:29.511Z,74.40
2018-06-02T20:34:57.050Z,74.40
2018-06-02T20:37:24.563Z,74.50
2018-06-02T20:39:52.087Z,74.20
2018-06-02T20:42:20.380Z,74.50
2018-06-02T20:44:47.931Z,74.40
2018-06-02T20:47:15.458Z,74.50
2018-06-02T20:49:42.987Z,74.20
2018-06-02T20:52:10.510Z,74.60
2018-06-02T20:54:38.028Z,74.70
2018-06-02T20:57:05.543Z,74.80
2018-06-02T20:59:33.063Z,74.80
2018-06-02T21:02:00.574Z,75.00
2018-06-02T21:04:28.110Z,75.40
2018-06-02T21:06:55.626Z,75.30
2018-06-02T21:09:23.147Z,75.40
2018-06-02T21:11:50.671Z,75.70
2018-06-02T21:14:18.186Z,75.80
2018-06-02T21:16:45.723Z,75.40
2018-06-02T21:19:13.234Z,75.40
2018-06-02T21:21:40.747Z,75.70
2018-06-02T21:24:08.260Z,76.00
2018-06-02T21:26:35.783Z,76.20
2018-06-02T21:29:03.302Z,76.30
2018-06-02T21:31:31.607Z,76.60
2018-06-02T21:33:59.127Z,76.60
2018-06-02T21:36:26.669Z,76.40
2018-06-02T21:38:54.183Z,76.40
2018-06-02T21:41:21.691Z,76.50
2018-06-02T21:43:49.208Z,76.60
2018-06-02T21:46:16.759Z,76.50
2018-06-02T21:48:44.262Z,76.90
2018-06-02T21:51:11.775Z,76.90
2018-06-02T21:53:39.286Z,77.50
2018-06-02T21:56:07.101Z,77.10
2018-06-02T21:58:34.630Z,76.90
2018-06-02T22:01:02.154Z,76.90
2018-06-02T22:03:29.674Z,77.00
2018-06-02T22:05:57.563Z,77.00
2018-06-02T22:08:25.078Z,77.10
2018-06-02T22:10:52.590Z,77.00
2018-06-02T22:13:20.115Z,76.80
2018-06-02T22:15:47.638Z,77.10
2018-06-02T22:18:15.179Z,77.60
2018-06-02T22:20:42.695Z,77.90
2018-06-02T22:23:10.230Z,78.00
2018-06-02T22:25:37.746Z,77.90
2018-06-02T22:28:05.291Z,77.90
2018-06-02T22:30:32.811Z,78.10
2018-06-02T22:33:01.119Z,78.50
2018-06-02T22:35:28.634Z,78.20
2018-06-02T22:37:56.174Z,78.00
2018-06-02T22:40:23.690Z,78.00
2018-06-02T22:42:51.245Z,78.00
2018-06-02T22:45:18.770Z,78.20
2018-06-02T22:47:46.316Z,78.00
2018-06-02T22:50:13.828Z,78.00
2018-06-02T22:52:41.359Z,78.10
2018-06-02T22:55:08.887Z,77.90
2018-06-02T22:57:36.408Z,78.00
2018-06-02T23:00:03.926Z,78.10
2018-06-02T23:02:31.444Z,78.20
2018-06-02T23:04:58.976Z,78.30
2018-06-02T23:07:26.514Z,78.90
2018-06-02T23:09:54.041Z,78.20
2018-06-02T23:12:21.571Z,78.10
2018-06-02T23:14:49.095Z,78.10
2018-06-02T23:17:16.607Z,77.90
2018-06-02T23:19:44.126Z,77.90
2018-06-02T23:22:23.328Z,77.80
2018-06-02T23:24:50.891Z,77.80
2018-06-02T23:27:18.417Z,78.00
2018-06-02T23:29:45.936Z,78.20
2018-06-02T23:32:14.687Z,78.30
2018-06-02T23:34:42.212Z,78.30
2018-06-02T23:37:09.741Z,78.20
2018-06-02T23:39:37.267Z,78.20
2018-06-02T23:42:04.786Z,78.30
2018-06-02T23:44:32.317Z,78.40
2018-06-02T23:46:59.882Z,78.60
2018-06-02T23:49:28.175Z,78.60
2018-06-02T23:51:55.685Z,78.50
2018-06-02T23:54:23.224Z,78.50
2018-06-02T23:56:50.743Z,78.70
2018-06-02T23:59:18.269Z,78.50
